createdAt,value
2018-06-27T00:00:43.093Z,0.00
2018-06-27T00:01:43.092Z,0.00
2018-06-27T00:02:43.090Z,0.00
2018-06-27T00:03:43.088Z,0.00
2018-06-27T00:04:43.092Z,0.00
2018-06-27T00:05:43.089Z,0.00
2018-06-27T00:06:43.086Z,0.00
2018-06-27T00:07:43.086Z,0.00
2018-06-27T00:08:43.084Z,0.00
2018-06-27T00:09:43.084Z,0.00
2018-06-27T00:10:43.083Z,0.00
2018-06-27T00:11:43.082Z,0.00
2018-06-27T00:12:43.080Z,0.00
2018-06-27T00:13:43.079Z,0.00
2018-06-27T00:14:43.077Z,0.00
2018-06-27T00:15:43.081Z,0.00
2018-06-27T00:16:43.074Z,0.00
2018-06-27T00:17:43.076Z,0.00
2018-06-27T00:18:43.071Z,0.00
2018-06-27T00:19:43.074Z,0.00
2018-06-27T00:20:43.071Z,0.00
2018-06-27T00:21:43.069Z,0.00
2018-06-27T00:22:43.068Z,0.00
2018-06-27T00:23:43.067Z,0.00
2018-06-27T00:24:43.065Z,0.00
2018-06-27T00:25:43.064Z,0.00
2018-06-27T00:26:43.063Z,0.00
2018-06-27T00:27:43.061Z,0.00
2018-06-27T00:28:43.063Z,0.00
2018-06-27T00:29:43.061Z,0.00
2018-06-27T00:30:43.057Z,0.00
2018-06-27T00:31:43.055Z,0.00
2018-06-27T00:32:43.055Z,0.00
2018-06-27T00:33:43.056Z,0.00
2018-06-27T00:34:43.052Z,0.00
2018-06-27T00:35:43.051Z,0.00
2018-06-27T00:36:43.049Z,0.00
2018-06-27T00:37:43.049Z,0.00
2018-06-27T00:38:43.050Z,0.00
2018-06-27T00:39:43.045Z,0.00
2018-06-27T00:40:43.047Z,0.00
2018-06-27T00:41:43.044Z,0.00
2018-06-27T00:42:43.041Z,0.00
2018-06-27T00:43:43.040Z,0.00
2018-06-27T00:44:43.039Z,0.00
2018-06-27T00:45:43.040Z,0.00
2018-06-27T00:46:43.035Z,0.00
2018-06-27T00:47:43.037Z,0.00
2018-06-27T00:48:43.033Z,0.00
2018-06-27T00:49:43.032Z,0.00
2018-06-27T00:50:43.031Z,0.00
2018-06-27T00:51:43.029Z,0.00
2018-06-27T00:52:43.027Z,0.00
2018-06-27T00:53:43.027Z,0.00
2018-06-27T00:54:43.024Z,0.00
2018-06-27T00:55:43.024Z,0.00
2018-06-27T00:56:43.023Z,0.00
2018-06-27T00:57:43.022Z,0.00
2018-06-27T00:58:43.020Z,0.00
2018-06-27T00:59:43.018Z,0.00
2018-06-27T01:00:43.016Z,0.00
2018-06-27T01:01:43.015Z,0.00
2018-06-27T01:02:43.014Z,0.00
2018-06-27T01:03:43.013Z,0.00
2018-06-27T01:04:43.013Z,0.00
2018-06-27T01:05:43.010Z,0.00
2018-06-27T01:06:43.007Z,0.00
2018-06-27T01:07:43.007Z,0.00
2018-06-27T01:08:43.006Z,0.00
2018-06-27T01:09:43.005Z,0.00
2018-06-27T01:10:43.047Z,0.00
2018-06-27T01:11:43.003Z,0.00
2018-06-27T01:12:43.003Z,0.00
2018-06-27T01:13:43.011Z,0.00
2018-06-27T01:14:42.998Z,0.00
2018-06-27T01:15:42.995Z,0.00
2018-06-27T01:16:42.993Z,0.00
2018-06-27T01:17:42.994Z,0.00
2018-06-27T01:18:42.992Z,0.00
2018-06-27T01:19:42.989Z,0.00
2018-06-27T01:20:42.989Z,0.00
2018-06-27T01:21:42.988Z,0.00
2018-06-27T01:22:42.986Z,0.00
2018-06-27T01:23:42.985Z,0.00
2018-06-27T01:24:42.984Z,0.00
2018-06-27T01:25:42.981Z,0.00
2018-06-27T01:26:42.979Z,0.00
2018-06-27T01:27:42.979Z,0.00
2018-06-27T01:28:42.977Z,0.00
2018-06-27T01:29:42.977Z,0.00
2018-06-27T01:30:42.973Z,0.00
2018-06-27T01:31:42.977Z,0.00
2018-06-27T01:32:42.971Z,0.00
2018-06-27T01:33:42.972Z,0.00
2018-06-27T01:34:42.969Z,0.00
2018-06-27T01:35:42.968Z,0.00
2018-06-27T01:36:42.966Z,0.00
2018-06-27T01:37:42.967Z,0.00
2018-06-27T01:38:42.962Z,0.00
2018-06-27T01:39:42.961Z,0.00
2018-06-27T01:40:42.960Z,0.00
2018-06-27T01:41:42.958Z,0.00
2018-06-27T01:42:42.960Z,0.00
2018-06-27T01:43:42.955Z,0.00
2018-06-27T01:44:42.953Z,0.00
2018-06-27T01:45:42.953Z,0.00
2018-06-27T01:46:42.952Z,0.00
2018-06-27T01:47:42.950Z,0.00
2018-06-27T01:48:42.949Z,0.00
2018-06-27T01:49:42.947Z,0.00
2018-06-27T01:50:42.947Z,0.00
2018-06-27T01:51:42.944Z,0.00
2018-06-27T01:52:42.943Z,0.00
2018-06-27T01:53:42.943Z,0.00
2018-06-27T01:54:42.939Z,0.00
2018-06-27T01:55:42.938Z,0.00
2018-06-27T01:56:42.938Z,0.00
2018-06-27T01:57:42.936Z,0.00
2018-06-27T01:58:42.933Z,0.00
2018-06-27T01:59:42.931Z,0.00
2018-06-27T02:00:42.930Z,0.00
2018-06-27T02:01:42.930Z,0.00
2018-06-27T02:02:42.929Z,0.00
2018-06-27T02:03:42.927Z,0.00
2018-06-27T02:04:42.925Z,0.00
2018-06-27T02:05:42.924Z,0.00
2018-06-27T02:06:42.922Z,0.00
2018-06-27T02:07:42.921Z,0.00
2018-06-27T02:08:42.919Z,0.00
2018-06-27T02:09:42.918Z,0.00
2018-06-27T02:10:42.914Z,0.00
2018-06-27T02:11:42.913Z,0.00
2018-06-27T02:12:42.913Z,0.00
2018-06-27T02:13:42.911Z,0.00
2018-06-27T02:14:42.907Z,0.00
2018-06-27T02:15:42.910Z,0.00
2018-06-27T02:16:42.905Z,0.00
2018-06-27T02:17:42.904Z,0.00
2018-06-27T02:18:42.902Z,0.00
2018-06-27T02:19:42.905Z,0.00
2018-06-27T02:20:42.899Z,0.00
2018-06-27T02:21:42.898Z,0.00
2018-06-27T02:22:42.896Z,0.00
2018-06-27T02:23:42.895Z,0.00
2018-06-27T02:24:42.893Z,0.00
2018-06-27T02:25:42.893Z,0.00
2018-06-27T02:26:42.890Z,0.00
2018-06-27T02:27:42.889Z,0.00
2018-06-27T02:28:42.888Z,4.00
2018-06-27T02:29:42.889Z,4.00
2018-06-27T02:30:42.884Z,4.00
2018-06-27T02:31:42.883Z,4.00
2018-06-27T02:32:42.886Z,0.00
2018-06-27T02:33:42.879Z,4.00
2018-06-27T02:34:42.877Z,4.00
2018-06-27T02:35:42.877Z,4.00
2018-06-27T02:36:42.875Z,4.00
2018-06-27T02:37:42.873Z,4.00
2018-06-27T02:38:42.869Z,4.00
2018-06-27T02:39:42.870Z,8.00
2018-06-27T02:40:42.868Z,8.00
2018-06-27T02:41:42.869Z,8.00
2018-06-27T02:42:42.864Z,12.00
2018-06-27T02:43:42.863Z,12.00
2018-06-27T02:44:42.861Z,12.00
2018-06-27T02:45:42.858Z,12.00
2018-06-27T02:46:42.857Z,16.00
2018-06-27T02:47:42.854Z,16.00
2018-06-27T02:48:42.853Z,16.00
2018-06-27T02:49:42.892Z,20.00
2018-06-27T02:50:42.849Z,20.00
2018-06-27T02:51:42.849Z,28.00
2018-06-27T02:52:42.848Z,28.00
2018-06-27T02:53:42.846Z,28.00
2018-06-27T02:54:42.846Z,36.00
2018-06-27T02:55:42.842Z,40.00
2018-06-27T02:56:42.840Z,40.00
2018-06-27T02:57:42.839Z,44.00
2018-06-27T02:58:42.835Z,52.00
2018-06-27T02:59:42.836Z,56.00
2018-06-27T03:00:42.833Z,64.00
2018-06-27T03:01:42.833Z,68.00
2018-06-27T03:02:42.836Z,72.00
2018-06-27T03:03:42.839Z,80.00
2018-06-27T03:04:42.826Z,88.00
2018-06-27T03:05:42.825Z,96.00
2018-06-27T03:06:42.824Z,100.00
2018-06-27T03:07:42.821Z,108.00
2018-06-27T03:08:42.819Z,120.00
2018-06-27T03:09:42.818Z,128.00
2018-06-27T03:10:42.816Z,140.00
2018-06-27T03:11:42.815Z,148.00
2018-06-27T03:12:42.813Z,160.00
2018-06-27T03:13:42.811Z,172.00
2018-06-27T03:14:42.809Z,184.00
2018-06-27T03:15:42.808Z,196.00
2018-06-27T03:16:42.807Z,208.00
2018-06-27T03:17:42.805Z,224.00
2018-06-27T03:18:42.803Z,236.00
2018-06-27T03:19:42.801Z,252.00
2018-06-27T03:20:42.799Z,268.00
2018-06-27T03:21:42.797Z,284.00
2018-06-27T03:22:42.797Z,300.00
2018-06-27T03:23:42.794Z,316.00
2018-06-27T03:24:42.792Z,336.00
2018-06-27T03:25:42.790Z,352.00
2018-06-27T03:26:42.788Z,372.00
2018-06-27T03:27:42.786Z,396.00
2018-06-27T03:28:42.784Z,416.00
2018-06-27T03:29:42.784Z,440.00
2018-06-27T03:30:42.781Z,460.00
2018-06-27T03:31:42.779Z,484.00
2018-06-27T03:32:42.779Z,508.00
2018-06-27T03:33:42.831Z,532.00
2018-06-27T03:34:42.776Z,560.00
2018-06-27T03:35:42.773Z,584.00
2018-06-27T03:36:42.770Z,612.00
2018-06-27T03:37:42.770Z,640.00
2018-06-27T03:38:42.767Z,668.00
2018-06-27T03:39:42.766Z,696.00
2018-06-27T03:40:42.764Z,728.00
2018-06-27T03:41:42.764Z,760.00
2018-06-27T03:42:42.761Z,796.00
2018-06-27T03:43:42.760Z,828.00
2018-06-27T03:44:42.757Z,860.00
2018-06-27T03:45:42.756Z,888.00
2018-06-27T03:46:42.754Z,916.00
2018-06-27T03:47:42.759Z,952.00
2018-06-27T03:48:42.751Z,976.00
2018-06-27T03:49:42.748Z,1012.00
2018-06-27T03:50:42.745Z,1052.00
2018-06-27T03:51:42.745Z,1088.00
2018-06-27T03:52:42.743Z,1124.00
2018-06-27T03:53:42.743Z,1156.00
2018-06-27T03:54:42.741Z,1196.00
2018-06-27T03:55:42.739Z,1232.00
2018-06-27T03:56:42.738Z,1272.00
2018-06-27T03:57:42.737Z,1312.00
2018-06-27T03:58:42.734Z,1352.00
2018-06-27T03:59:42.731Z,1384.00
2018-06-27T04:00:42.731Z,1416.00
2018-06-27T04:01:42.729Z,1460.00
2018-06-27T04:02:42.726Z,1512.00
2018-06-27T04:03:42.726Z,1560.00
2018-06-27T04:04:42.725Z,1612.00
2018-06-27T04:05:42.724Z,1652.00
2018-06-27T04:06:42.722Z,1696.00
2018-06-27T04:07:42.720Z,1744.00
2018-06-27T04:08:42.720Z,1768.00
2018-06-27T04:09:42.717Z,1808.00
2018-06-27T04:10:42.715Z,1844.00
2018-06-27T04:11:42.714Z,1892.00
2018-06-27T04:12:42.791Z,1944.00
2018-06-27T04:13:42.710Z,1992.00
2018-06-27T04:14:42.714Z,2020.00
2018-06-27T04:15:42.711Z,2060.00
2018-06-27T04:16:42.706Z,2088.00
2018-06-27T04:17:42.704Z,2168.00
2018-06-27T04:18:42.702Z,2224.00
2018-06-27T04:19:42.701Z,2244.00
2018-06-27T04:20:42.699Z,2324.00
2018-06-27T04:21:42.701Z,2364.00
2018-06-27T04:22:42.698Z,2428.00
2018-06-27T04:23:42.694Z,2472.00
2018-06-27T04:24:42.695Z,2516.00
2018-06-27T04:25:42.693Z,2592.00
2018-06-27T04:26:42.692Z,2628.00
2018-06-27T04:27:42.690Z,2692.00
2018-06-27T04:28:42.689Z,2712.00
2018-06-27T04:29:42.687Z,2668.00
2018-06-27T04:30:42.708Z,2624.00
2018-06-27T04:31:42.684Z,2792.00
2018-06-27T04:32:42.683Z,2900.00
2018-06-27T04:33:42.682Z,2956.00
2018-06-27T04:34:42.680Z,3068.00
2018-06-27T04:35:42.682Z,3144.00
2018-06-27T04:36:42.682Z,3216.00
2018-06-27T04:37:42.677Z,3360.00
2018-06-27T04:38:42.674Z,3424.00
2018-06-27T04:39:42.674Z,3436.00
2018-06-27T04:40:42.673Z,3476.00
2018-06-27T04:41:42.670Z,3676.00
2018-06-27T04:42:42.670Z,3628.00
2018-06-27T04:43:42.669Z,3688.00
2018-06-27T04:44:42.668Z,3784.00
2018-06-27T04:45:42.667Z,4176.00
2018-06-27T04:46:42.665Z,3972.00
2018-06-27T04:47:42.664Z,4012.00
2018-06-27T04:48:42.662Z,4048.00
2018-06-27T04:49:42.662Z,4428.00
2018-06-27T04:50:42.661Z,4260.00
2018-06-27T04:51:42.660Z,4208.00
2018-06-27T04:52:42.658Z,4360.00
2018-06-27T04:53:42.657Z,4424.00
2018-06-27T04:54:42.655Z,4608.00
2018-06-27T04:55:42.655Z,4644.00
2018-06-27T04:56:42.654Z,4748.00
2018-06-27T04:57:42.653Z,4808.00
2018-06-27T04:58:42.652Z,5012.00
2018-06-27T04:59:42.653Z,4876.00
2018-06-27T05:00:42.648Z,4984.00
2018-06-27T05:01:42.654Z,5224.00
2018-06-27T05:02:42.648Z,5204.00
2018-06-27T05:03:42.647Z,5244.00
2018-06-27T05:04:42.646Z,5268.00
2018-06-27T05:05:42.644Z,4996.00
2018-06-27T05:06:42.643Z,5168.00
2018-06-27T05:07:42.642Z,5452.00
2018-06-27T05:08:42.642Z,5380.00
2018-06-27T05:09:42.642Z,5484.00
2018-06-27T05:10:42.640Z,5488.00
2018-06-27T05:11:42.677Z,5316.00
2018-06-27T05:12:42.640Z,5340.00
2018-06-27T05:13:42.639Z,5308.00
2018-06-27T05:14:42.636Z,5484.00
2018-06-27T05:15:42.638Z,5424.00
2018-06-27T05:16:42.639Z,5476.00
2018-06-27T05:17:42.636Z,5620.00
2018-06-27T05:18:42.638Z,5664.00
2018-06-27T05:19:42.635Z,5732.00
2018-06-27T05:20:42.635Z,17120.00
2018-06-27T05:21:42.648Z,42720.00
2018-06-27T05:22:42.632Z,50848.00
2018-06-27T05:23:42.634Z,49408.00
2018-06-27T05:24:42.634Z,51552.00
2018-06-27T05:25:42.635Z,53824.00
2018-06-27T05:26:42.634Z,54176.00
2018-06-27T05:27:42.645Z,52960.00
2018-06-27T05:28:42.640Z,53792.00
2018-06-27T05:29:42.641Z,55104.00
2018-06-27T05:30:42.641Z,56256.00
2018-06-27T05:31:42.645Z,55232.00
2018-06-27T05:32:42.649Z,53664.00
2018-06-27T05:33:42.652Z,54112.00
2018-06-27T05:34:42.655Z,53664.00
2018-06-27T05:35:42.660Z,54336.00
2018-06-27T05:36:42.666Z,57504.00
2018-06-27T05:37:42.671Z,56352.00
2018-06-27T05:38:42.676Z,56512.00
2018-06-27T05:39:42.682Z,57888.00
2018-06-27T05:40:42.689Z,58816.00
2018-06-27T05:41:42.695Z,59008.00
2018-06-27T05:42:42.703Z,54816.00
2018-06-27T05:43:42.709Z,45408.00
2018-06-27T05:44:42.717Z,35104.00
2018-06-27T05:45:42.724Z,24704.00
2018-06-27T05:46:42.731Z,14816.00
2018-06-27T05:47:42.739Z,8536.00
2018-06-27T05:48:42.746Z,7508.00
2018-06-27T05:49:42.755Z,7504.00
2018-06-27T05:50:42.761Z,7392.00
2018-06-27T05:51:42.824Z,7240.00
2018-06-27T05:52:42.779Z,7104.00
2018-06-27T05:53:42.785Z,7132.00
2018-06-27T05:54:42.793Z,7128.00
2018-06-27T05:55:42.800Z,7056.00
2018-06-27T05:56:42.808Z,7000.00
2018-06-27T05:57:42.815Z,7188.00
2018-06-27T05:58:42.821Z,7096.00
2018-06-27T05:59:42.830Z,7140.00
2018-06-27T06:00:42.833Z,7248.00
2018-06-27T06:01:42.841Z,7380.00
2018-06-27T06:02:42.846Z,7316.00
2018-06-27T06:03:42.852Z,7248.00
2018-06-27T06:04:42.858Z,7396.00
2018-06-27T06:05:42.865Z,7252.00
2018-06-27T06:06:42.869Z,7328.00
2018-06-27T06:07:42.875Z,7396.00
2018-06-27T06:08:42.880Z,7352.00
2018-06-27T06:09:42.885Z,7408.00
2018-06-27T06:10:42.890Z,7424.00
2018-06-27T06:11:42.895Z,7468.00
2018-06-27T06:12:42.899Z,7512.00
2018-06-27T06:13:42.904Z,7396.00
2018-06-27T06:14:42.909Z,7564.00
2018-06-27T06:15:42.911Z,7656.00
2018-06-27T06:16:42.917Z,7400.00
2018-06-27T06:17:42.922Z,7528.00
2018-06-27T06:18:42.925Z,7636.00
2018-06-27T06:19:42.932Z,7676.00
2018-06-27T06:20:42.933Z,7800.00
2018-06-27T06:21:42.946Z,7704.00
2018-06-27T06:22:42.941Z,7836.00
2018-06-27T06:23:42.944Z,7692.00
2018-06-27T06:24:42.949Z,7860.00
2018-06-27T06:25:42.955Z,7852.00
2018-06-27T06:26:42.957Z,7996.00
2018-06-27T06:27:42.960Z,7988.00
2018-06-27T06:28:42.968Z,8116.00
2018-06-27T06:29:42.969Z,8208.00
2018-06-27T06:30:42.972Z,8352.00
2018-06-27T06:31:42.975Z,8408.00
2018-06-27T06:32:42.979Z,8376.00
2018-06-27T06:33:42.984Z,8456.00
2018-06-27T06:34:42.984Z,8248.00
2018-06-27T06:35:42.994Z,8332.00
2018-06-27T06:36:42.992Z,8520.00
2018-06-27T06:37:42.995Z,8420.00
2018-06-27T06:38:42.997Z,8588.00
2018-06-27T06:39:43.001Z,8596.00
2018-06-27T06:40:43.053Z,8728.00
2018-06-27T06:41:43.009Z,8688.00
2018-06-27T06:42:43.013Z,8592.00
2018-06-27T06:43:43.015Z,8640.00
2018-06-27T06:44:43.018Z,8624.00
2018-06-27T06:45:43.022Z,8376.00
2018-06-27T06:46:43.022Z,8444.00
2018-06-27T06:47:43.028Z,8540.00
2018-06-27T06:48:43.031Z,8776.00
2018-06-27T06:49:43.034Z,8924.00
2018-06-27T06:50:43.038Z,8972.00
2018-06-27T06:51:43.040Z,9312.00
2018-06-27T06:52:43.044Z,9536.00
2018-06-27T06:53:43.045Z,9592.00
2018-06-27T06:54:43.048Z,9748.00
2018-06-27T06:55:43.050Z,9552.00
2018-06-27T06:56:43.055Z,9468.00
2018-06-27T06:57:43.061Z,9496.00
2018-06-27T06:58:43.119Z,9420.00
2018-06-27T06:59:43.063Z,9556.00
2018-06-27T07:00:43.065Z,10088.00
2018-06-27T07:01:43.070Z,10000.00
2018-06-27T07:02:43.072Z,10100.00
2018-06-27T07:03:43.076Z,10312.00
2018-06-27T07:04:43.083Z,10260.00
2018-06-27T07:05:43.085Z,10392.00
2018-06-27T07:06:43.084Z,10440.00
2018-06-27T07:07:43.088Z,10352.00
2018-06-27T07:08:43.091Z,10592.00
2018-06-27T07:09:43.094Z,10848.00
2018-06-27T07:10:43.097Z,11088.00
2018-06-27T07:11:43.100Z,10768.00
2018-06-27T07:12:43.106Z,10764.00
2018-06-27T07:13:43.107Z,10912.00
2018-06-27T07:14:43.109Z,10772.00
2018-06-27T07:15:43.114Z,10728.00
2018-06-27T07:16:43.115Z,10836.00
2018-06-27T07:17:43.177Z,10900.00
2018-06-27T07:18:43.124Z,11096.00
2018-06-27T07:19:43.126Z,11116.00
2018-06-27T07:20:43.131Z,10908.00
2018-06-27T07:21:43.133Z,10680.00
2018-06-27T07:22:43.136Z,10556.00
2018-06-27T07:23:43.138Z,10656.00
2018-06-27T07:24:43.142Z,10764.00
2018-06-27T07:25:43.147Z,10984.00
2018-06-27T07:26:43.149Z,14168.00
2018-06-27T07:27:43.152Z,38496.00
2018-06-27T07:28:43.266Z,68768.00
2018-06-27T07:29:43.160Z,83936.00
2018-06-27T07:30:43.163Z,83264.00
2018-06-27T07:31:43.168Z,84224.00
2018-06-27T07:32:43.173Z,83104.00
2018-06-27T07:33:43.177Z,81376.00
2018-06-27T07:34:43.181Z,82368.00
2018-06-27T07:35:43.187Z,83840.00
2018-06-27T07:36:43.195Z,83936.00
2018-06-27T07:37:43.203Z,83776.00
2018-06-27T07:38:43.209Z,84768.00
2018-06-27T07:39:43.216Z,84064.00
2018-06-27T07:40:43.224Z,83616.00
2018-06-27T07:41:43.234Z,82080.00
2018-06-27T07:42:43.242Z,83328.00
2018-06-27T07:43:43.252Z,82848.00
2018-06-27T07:44:43.263Z,82080.00
2018-06-27T07:45:43.274Z,84320.00
2018-06-27T07:46:43.284Z,84672.00
2018-06-27T07:47:43.297Z,82432.00
2018-06-27T07:48:47.206Z,79296.00
2018-06-27T07:49:43.381Z,81408.00
2018-06-27T07:50:43.330Z,83936.00
2018-06-27T07:51:43.342Z,84768.00
2018-06-27T07:52:43.356Z,83392.00
2018-06-27T07:53:43.369Z,82368.00
2018-06-27T07:54:43.382Z,81536.00
2018-06-27T07:55:43.394Z,80352.00
2018-06-27T07:56:43.409Z,82656.00
2018-06-27T07:57:43.424Z,82208.00
2018-06-27T07:58:43.437Z,80832.00
2018-06-27T07:59:43.452Z,80544.00
2018-06-27T08:00:43.467Z,79328.00
2018-06-27T08:01:43.482Z,78752.00
2018-06-27T08:02:43.496Z,76064.00
2018-06-27T08:03:43.512Z,72576.00
2018-06-27T08:04:43.527Z,70432.00
2018-06-27T08:05:43.542Z,66400.00
2018-06-27T08:06:43.557Z,72352.00
2018-06-27T08:07:43.572Z,74208.00
2018-06-27T08:08:43.590Z,72192.00
2018-06-27T08:09:43.605Z,67104.00
2018-06-27T08:10:43.619Z,72032.00
2018-06-27T08:11:43.641Z,68800.00
2018-06-27T08:12:43.720Z,73568.00
2018-06-27T08:13:43.669Z,78784.00
2018-06-27T08:14:43.683Z,80000.00
2018-06-27T08:15:43.700Z,76608.00
2018-06-27T08:16:43.717Z,77312.00
2018-06-27T08:17:43.816Z,78496.00
2018-06-27T08:18:43.752Z,77536.00
2018-06-27T08:19:43.765Z,77984.00
2018-06-27T08:20:43.782Z,77952.00
2018-06-27T08:21:43.799Z,82880.00
2018-06-27T08:22:43.814Z,81728.00
2018-06-27T08:23:43.830Z,84576.00
2018-06-27T08:24:43.846Z,85056.00
2018-06-27T08:25:43.865Z,80320.00
2018-06-27T08:26:43.879Z,80192.00
2018-06-27T08:27:43.895Z,76544.00
2018-06-27T08:28:43.913Z,75168.00
2018-06-27T08:29:43.929Z,78272.00
2018-06-27T08:30:43.945Z,75328.00
2018-06-27T08:31:43.965Z,73984.00
2018-06-27T08:32:43.979Z,77088.00
2018-06-27T08:33:43.995Z,79392.00
2018-06-27T08:34:44.011Z,78944.00
2018-06-27T08:35:44.029Z,74560.00
2018-06-27T08:36:44.042Z,72800.00
2018-06-27T08:37:44.060Z,75648.00
2018-06-27T08:38:44.079Z,77504.00
2018-06-27T08:39:44.092Z,75264.00
2018-06-27T08:40:44.109Z,74560.00
2018-06-27T08:41:44.127Z,77312.00
2018-06-27T08:42:44.142Z,76320.00
2018-06-27T08:43:44.204Z,78496.00
2018-06-27T08:44:44.173Z,76992.00
2018-06-27T08:45:44.190Z,76896.00
2018-06-27T08:46:44.207Z,69664.00
2018-06-27T08:47:44.222Z,73664.00
2018-06-27T08:48:44.239Z,74944.00
2018-06-27T08:49:44.255Z,75424.00
2018-06-27T08:50:44.270Z,77376.00
2018-06-27T08:51:44.289Z,75552.00
2018-06-27T08:52:44.302Z,73376.00
2018-06-27T08:53:44.322Z,72800.00
2018-06-27T08:54:44.337Z,70496.00
2018-06-27T08:55:44.352Z,71776.00
2018-06-27T08:56:44.368Z,73024.00
2018-06-27T08:57:44.385Z,72192.00
2018-06-27T08:58:44.436Z,72864.00
2018-06-27T08:59:44.416Z,74688.00
2018-06-27T09:00:44.434Z,74976.00
2018-06-27T09:01:44.449Z,76992.00
2018-06-27T09:02:44.465Z,74496.00
2018-06-27T09:03:44.481Z,73888.00
2018-06-27T09:04:44.498Z,74848.00
2018-06-27T09:05:44.514Z,75264.00
2018-06-27T09:06:44.530Z,73024.00
2018-06-27T09:07:44.559Z,73088.00
2018-06-27T09:08:44.566Z,66304.00
2018-06-27T09:09:44.581Z,62560.00
2018-06-27T09:10:44.594Z,69280.00
2018-06-27T09:11:44.611Z,64416.00
2018-06-27T09:12:44.628Z,56768.00
2018-06-27T09:13:44.645Z,59488.00
2018-06-27T09:14:44.661Z,66688.00
2018-06-27T09:15:44.676Z,69408.00
2018-06-27T09:16:44.694Z,70752.00
2018-06-27T09:17:44.711Z,70080.00
2018-06-27T09:18:44.737Z,70560.00
2018-06-27T09:19:44.746Z,70112.00
2018-06-27T09:20:44.760Z,67936.00
2018-06-27T09:21:44.776Z,65088.00
2018-06-27T09:22:44.793Z,62496.00
2018-06-27T09:23:44.809Z,63744.00
2018-06-27T09:24:44.826Z,66944.00
2018-06-27T09:25:44.842Z,66112.00
2018-06-27T09:26:44.859Z,66880.00
2018-06-27T09:27:44.881Z,64288.00
2018-06-27T09:28:44.892Z,63968.00
2018-06-27T09:29:44.943Z,67520.00
2018-06-27T09:30:44.926Z,66208.00
2018-06-27T09:31:44.943Z,63488.00
2018-06-27T09:32:44.960Z,64448.00
2018-06-27T09:33:44.977Z,64832.00
2018-06-27T09:34:44.993Z,65824.00
2018-06-27T09:35:45.011Z,67104.00
2018-06-27T09:36:45.030Z,64288.00
2018-06-27T09:37:45.044Z,66720.00
2018-06-27T09:38:45.061Z,73184.00
2018-06-27T09:39:45.077Z,76480.00
2018-06-27T09:40:45.096Z,53152.00
2018-06-27T09:41:45.113Z,30144.00
2018-06-27T09:42:45.126Z,25344.00
2018-06-27T09:43:45.146Z,24960.00
2018-06-27T09:44:45.161Z,23584.00
2018-06-27T09:45:45.177Z,22528.00
2018-06-27T09:46:45.196Z,22528.00
2018-06-27T09:47:45.210Z,22624.00
2018-06-27T09:48:45.227Z,22560.00
2018-06-27T09:49:45.246Z,21984.00
2018-06-27T09:50:45.260Z,21952.00
2018-06-27T09:51:45.277Z,21792.00
2018-06-27T09:52:45.294Z,21472.00
2018-06-27T09:53:45.313Z,20992.00
2018-06-27T09:54:45.328Z,20128.00
2018-06-27T09:55:45.344Z,19840.00
2018-06-27T09:56:45.379Z,20544.00
2018-06-27T09:57:45.382Z,20160.00
2018-06-27T09:58:45.393Z,19840.00
2018-06-27T09:59:45.410Z,19872.00
2018-06-27T10:00:45.426Z,19840.00
2018-06-27T10:01:45.442Z,19520.00
2018-06-27T10:02:45.459Z,19360.00
2018-06-27T10:03:45.475Z,19296.00
2018-06-27T10:04:45.493Z,19136.00
2018-06-27T10:05:45.507Z,19136.00
2018-06-27T10:06:45.522Z,18592.00
2018-06-27T10:07:45.604Z,18688.00
2018-06-27T10:08:45.556Z,18656.00
2018-06-27T10:09:45.572Z,18752.00
2018-06-27T10:10:45.591Z,18304.00
2018-06-27T10:11:45.606Z,18656.00
2018-06-27T10:12:45.622Z,18336.00
2018-06-27T10:13:45.637Z,17792.00
2018-06-27T10:14:45.652Z,18016.00
2018-06-27T10:15:45.669Z,18688.00
2018-06-27T10:16:45.689Z,18592.00
2018-06-27T10:17:45.703Z,18080.00
2018-06-27T10:18:45.718Z,17440.00
2018-06-27T10:19:45.735Z,17568.00
2018-06-27T10:20:45.751Z,17408.00
2018-06-27T10:21:45.768Z,16928.00
2018-06-27T10:22:45.803Z,16992.00
2018-06-27T10:23:45.798Z,16864.00
2018-06-27T10:24:45.815Z,17152.00
2018-06-27T10:25:45.832Z,17248.00
2018-06-27T10:26:45.847Z,16608.00
2018-06-27T10:27:45.864Z,16512.00
2018-06-27T10:28:45.880Z,16292.00
2018-06-27T10:29:45.895Z,15516.00
2018-06-27T10:30:45.910Z,15652.00
2018-06-27T10:31:45.928Z,15624.00
2018-06-27T10:32:45.943Z,16012.00
2018-06-27T10:33:45.959Z,16608.00
2018-06-27T10:34:46.011Z,16832.00
2018-06-27T10:35:46.045Z,16704.00
2018-06-27T10:36:46.008Z,16512.00
2018-06-27T10:37:46.028Z,16052.00
2018-06-27T10:38:46.037Z,16224.00
2018-06-27T10:39:46.053Z,16320.00
2018-06-27T10:40:46.070Z,17056.00
2018-06-27T10:41:46.085Z,18112.00
2018-06-27T10:42:46.100Z,19936.00
2018-06-27T10:43:46.114Z,21760.00
2018-06-27T10:44:46.132Z,22496.00
2018-06-27T10:45:46.147Z,25280.00
2018-06-27T10:46:46.160Z,28000.00
2018-06-27T10:47:46.178Z,29312.00
2018-06-27T10:48:46.192Z,28032.00
2018-06-27T10:49:46.209Z,26272.00
2018-06-27T10:50:46.224Z,24576.00
2018-06-27T10:51:46.239Z,21984.00
2018-06-27T10:52:46.255Z,20704.00
2018-06-27T10:53:46.270Z,19968.00
2018-06-27T10:54:46.289Z,8216.00
2018-06-27T10:55:46.300Z,12748.00
2018-06-27T10:56:46.315Z,17152.00
2018-06-27T10:57:46.332Z,15684.00
2018-06-27T10:58:46.345Z,14164.00
2018-06-27T10:59:46.363Z,13016.00
2018-06-27T11:00:46.375Z,13560.00
2018-06-27T11:01:46.396Z,13128.00
2018-06-27T11:02:46.407Z,13092.00
2018-06-27T11:03:46.420Z,12964.00
2018-06-27T11:04:46.436Z,12820.00
2018-06-27T11:05:46.453Z,12496.00
2018-06-27T11:06:46.466Z,12400.00
2018-06-27T11:07:46.480Z,12336.00
2018-06-27T11:08:46.495Z,12388.00
2018-06-27T11:09:46.510Z,12600.00
2018-06-27T11:10:46.524Z,12972.00
2018-06-27T11:11:46.538Z,13052.00
2018-06-27T11:12:46.552Z,12332.00
2018-06-27T11:13:46.567Z,12532.00
2018-06-27T11:14:46.581Z,12788.00
2018-06-27T11:15:46.595Z,13044.00
2018-06-27T11:16:46.614Z,11696.00
2018-06-27T11:17:46.624Z,12056.00
2018-06-27T11:18:46.640Z,10892.00
2018-06-27T11:19:46.652Z,11212.00
2018-06-27T11:20:46.667Z,7656.00
2018-06-27T11:21:46.680Z,10996.00
2018-06-27T11:22:46.695Z,5272.00
2018-06-27T11:23:46.707Z,5112.00
2018-06-27T11:24:46.723Z,8056.00
2018-06-27T11:25:46.735Z,9072.00
2018-06-27T11:26:46.827Z,9132.00
2018-06-27T11:27:46.761Z,9148.00
2018-06-27T11:28:46.775Z,9300.00
2018-06-27T11:29:46.789Z,9404.00
2018-06-27T11:30:46.801Z,9164.00
2018-06-27T11:31:46.814Z,8900.00
2018-06-27T11:32:46.882Z,8884.00
2018-06-27T11:33:46.841Z,9328.00
2018-06-27T11:34:46.852Z,9248.00
2018-06-27T11:35:46.865Z,8752.00
2018-06-27T11:36:46.877Z,8528.00
2018-06-27T11:37:46.891Z,8436.00
2018-06-27T11:38:46.994Z,8944.00
2018-06-27T11:39:46.915Z,9660.00
2018-06-27T11:40:46.934Z,9688.00
2018-06-27T11:41:46.940Z,9540.00
2018-06-27T11:42:46.953Z,9756.00
2018-06-27T11:43:46.964Z,10012.00
2018-06-27T11:44:46.975Z,6728.00
2018-06-27T11:45:46.988Z,9508.00
2018-06-27T11:46:46.999Z,9444.00
2018-06-27T11:47:47.010Z,9324.00
2018-06-27T11:48:47.025Z,9404.00
2018-06-27T11:49:47.035Z,9468.00
2018-06-27T11:50:47.046Z,9728.00
2018-06-27T11:51:47.058Z,9796.00
2018-06-27T11:52:47.070Z,10116.00
2018-06-27T11:53:47.081Z,10220.00
2018-06-27T11:54:47.092Z,10048.00
2018-06-27T11:55:47.104Z,8396.00
2018-06-27T11:56:47.115Z,5920.00
2018-06-27T11:57:47.127Z,4956.00
2018-06-27T11:58:47.137Z,5220.00
2018-06-27T11:59:47.149Z,8372.00
2018-06-27T12:00:47.159Z,8776.00
2018-06-27T12:01:47.172Z,8844.00
2018-06-27T12:02:47.184Z,8804.00
2018-06-27T12:03:47.196Z,8960.00
2018-06-27T12:04:47.205Z,9288.00
2018-06-27T12:05:47.217Z,9584.00
2018-06-27T12:06:47.227Z,9956.00
2018-06-27T12:07:47.238Z,10196.00
2018-06-27T12:08:47.252Z,10188.00
2018-06-27T12:09:47.259Z,9684.00
2018-06-27T12:10:47.271Z,9080.00
2018-06-27T12:11:47.282Z,5756.00
2018-06-27T12:12:47.293Z,6276.00
2018-06-27T12:13:47.305Z,8684.00
2018-06-27T12:14:47.316Z,9572.00